sensor_id;sensor_type;location;lat;lon;timestamp;P1;durP1;ratioP1;P2;durP2;ratioP2
74898;SDS011;63458;48.210;16.338;2023-05-10T00:01:08;8.35;;;3.90;;
74898;SDS011;63458;48.210;16.338;2023-05-10T00:03:34;7.13;;;4.03;;
74898;SDS011;63458;48.210;16.338;2023-05-10T00:06:00;8.23;;;3.97;;
74898;SDS011;63458;48.210;16.338;2023-05-10T00:08:26;7.45;;;3.42;;
74898;SDS011;63458;48.210;16.338;2023-05-10T00:10:52;6.50;;;3.40;;
74898;SDS011;63458;48.210;16.338;2023-05-10T00:13:18;8.25;;;4.03;;
74898;SDS011;63458;48.210;16.338;2023-05-10T00:15:44;9.02;;;3.85;;
74898;SDS011;63458;48.210;16.338;2023-05-10T00:18:10;7.13;;;3.60;;
74898;SDS011;63458;48.210;16.338;2023-05-10T00:20:36;6.55;;;3.17;;
74898;SDS011;63458;48.210;16.338;2023-05-10T00:23:02;7.18;;;3.90;;
74898;SDS011;63458;48.210;16.338;2023-05-10T00:25:28;7.07;;;3.58;;
74898;SDS011;63458;48.210;16.338;2023-05-10T00:27:54;8.02;;;4.50;;
74898;SDS011;63458;48.210;16.338;2023-05-10T00:30:22;7.72;;;3.78;;
74898;SDS011;63458;48.210;16.338;2023-05-10T00:32:48;6.97;;;3.47;;
74898;SDS011;63458;48.210;16.338;2023-05-10T00:35:15;9.50;;;3.92;;
74898;SDS011;63458;48.210;16.338;2023-05-10T00:37:41;8.25;;;4.07;;
74898;SDS011;63458;48.210;16.338;2023-05-10T00:40:07;8.05;;;4.70;;
74898;SDS011;63458;48.210;16.338;2023-05-10T00:42:33;6.97;;;3.63;;
74898;SDS011;63458;48.210;16.338;2023-05-10T00:44:59;6.90;;;3.50;;
74898;SDS011;63458;48.210;16.338;2023-05-10T00:47:25;7.50;;;4.13;;
74898;SDS011;63458;48.210;16.338;2023-05-10T00:49:51;7.38;;;4.70;;
74898;SDS011;63458;48.210;16.338;2023-05-10T00:52:17;7.70;;;3.90;;
74898;SDS011;63458;48.210;16.338;2023-05-10T00:54:43;7.07;;;4.00;;
74898;SDS011;63458;48.210;16.338;2023-05-10T00:57:10;7.65;;;4.50;;
74898;SDS011;63458;48.210;16.338;2023-05-10T00:59:36;7.90;;;4.35;;
74898;SDS011;63458;48.210;16.338;2023-05-10T01:02:02;10.23;;;4.10;;
74898;SDS011;63458;48.210;16.338;2023-05-10T01:04:28;7.90;;;4.65;;
74898;SDS011;63458;48.210;16.338;2023-05-10T01:06:55;7.53;;;3.85;;
74898;SDS011;63458;48.210;16.338;2023-05-10T01:09:21;7.60;;;3.88;;
74898;SDS011;63458;48.210;16.338;2023-05-10T01:11:48;7.03;;;3.72;;
74898;SDS011;63458;48.210;16.338;2023-05-10T01:14:15;7.75;;;4.32;;
74898;SDS011;63458;48.210;16.338;2023-05-10T01:16:42;8.00;;;4.63;;
74898;SDS011;63458;48.210;16.338;2023-05-10T01:19:17;7.15;;;3.92;;
74898;SDS011;63458;48.210;16.338;2023-05-10T01:24:31;7.00;;;3.85;;
74898;SDS011;63458;48.210;16.338;2023-05-10T01:27:17;8.30;;;3.95;;
74898;SDS011;63458;48.210;16.338;2023-05-10T01:32:24;8.10;;;4.35;;
74898;SDS011;63458;48.210;16.338;2023-05-10T01:40:08;8.80;;;5.00;;
74898;SDS011;63458;48.210;16.338;2023-05-10T01:42:40;8.55;;;3.67;;
74898;SDS011;63458;48.210;16.338;2023-05-10T01:45:12;7.18;;;3.95;;
74898;SDS011;63458;48.210;16.338;2023-05-10T01:47:41;7.75;;;4.00;;
74898;SDS011;63458;48.210;16.338;2023-05-10T01:50:10;7.82;;;4.07;;
74898;SDS011;63458;48.210;16.338;2023-05-10T01:52:41;7.60;;;4.13;;
74898;SDS011;63458;48.210;16.338;2023-05-10T01:55:09;7.93;;;3.88;;
74898;SDS011;63458;48.210;16.338;2023-05-10T01:57:37;7.35;;;3.90;;
74898;SDS011;63458;48.210;16.338;2023-05-10T02:00:05;10.40;;;4.25;;
74898;SDS011;63458;48.210;16.338;2023-05-10T02:02:33;8.85;;;4.78;;
74898;SDS011;63458;48.210;16.338;2023-05-10T02:05:00;7.65;;;3.65;;
74898;SDS011;63458;48.210;16.338;2023-05-10T02:07:28;8.60;;;4.25;;
74898;SDS011;63458;48.210;16.338;2023-05-10T02:09:54;8.15;;;4.50;;
74898;SDS011;63458;48.210;16.338;2023-05-10T02:12:21;7.72;;;4.10;;
74898;SDS011;63458;48.210;16.338;2023-05-10T02:14:48;8.30;;;4.18;;
74898;SDS011;63458;48.210;16.338;2023-05-10T02:17:14;8.30;;;4.07;;
74898;SDS011;63458;48.210;16.338;2023-05-10T02:19:41;10.27;;;4.25;;
74898;SDS011;63458;48.210;16.338;2023-05-10T02:22:09;7.55;;;3.67;;
74898;SDS011;63458;48.210;16.338;2023-05-10T02:24:35;9.20;;;4.05;;
74898;SDS011;63458;48.210;16.338;2023-05-10T02:27:02;8.55;;;4.55;;
74898;SDS011;63458;48.210;16.338;2023-05-10T02:29:29;8.93;;;4.20;;
74898;SDS011;63458;48.210;16.338;2023-05-10T02:31:56;7.60;;;3.90;;
74898;SDS011;63458;48.210;16.338;2023-05-10T02:34:23;6.53;;;4.00;;
74898;SDS011;63458;48.210;16.338;2023-05-10T02:36:51;9.23;;;4.90;;
74898;SDS011;63458;48.210;16.338;2023-05-10T02:39:18;6.93;;;3.97;;
74898;SDS011;63458;48.210;16.338;2023-05-10T02:41:45;10.20;;;4.40;;
74898;SDS011;63458;48.210;16.338;2023-05-10T02:44:11;8.38;;;4.38;;
74898;SDS011;63458;48.210;16.338;2023-05-10T02:46:40;10.02;;;4.22;;
74898;SDS011;63458;48.210;16.338;2023-05-10T02:49:06;9.13;;;5.05;;
74898;SDS011;63458;48.210;16.338;2023-05-10T02:51:33;9.23;;;4.85;;
74898;SDS011;63458;48.210;16.338;2023-05-10T02:54:01;7.85;;;4.07;;
74898;SDS011;63458;48.210;16.338;2023-05-10T02:56:31;8.95;;;4.75;;
74898;SDS011;63458;48.210;16.338;2023-05-10T02:58:58;7.60;;;4.35;;
74898;SDS011;63458;48.210;16.338;2023-05-10T03:01:24;7.65;;;4.47;;
74898;SDS011;63458;48.210;16.338;2023-05-10T03:03:50;7.68;;;4.47;;
74898;SDS011;63458;48.210;16.338;2023-05-10T03:06:16;7.95;;;4.82;;
74898;SDS011;63458;48.210;16.338;2023-05-10T03:08:43;7.65;;;4.35;;
74898;SDS011;63458;48.210;16.338;2023-05-10T03:16:16;7.90;;;4.45;;
74898;SDS011;63458;48.210;16.338;2023-05-10T03:21:11;7.60;;;4.90;;
74898;SDS011;63458;48.210;16.338;2023-05-10T03:26:03;7.88;;;4.65;;
74898;SDS011;63458;48.210;16.338;2023-05-10T03:28:30;9.65;;;4.82;;
74898;SDS011;63458;48.210;16.338;2023-05-10T03:30:57;8.63;;;5.15;;
74898;SDS011;63458;48.210;16.338;2023-05-10T03:33:23;11.95;;;5.05;;
74898;SDS011;63458;48.210;16.338;2023-05-10T03:35:49;10.32;;;5.68;;
74898;SDS011;63458;48.210;16.338;2023-05-10T03:38:15;7.28;;;4.50;;
74898;SDS011;63458;48.210;16.338;2023-05-10T03:40:41;8.50;;;4.97;;
74898;SDS011;63458;48.210;16.338;2023-05-10T03:43:07;8.80;;;4.50;;
74898;SDS011;63458;48.210;16.338;2023-05-10T03:45:33;9.85;;;5.35;;
74898;SDS011;63458;48.210;16.338;2023-05-10T03:47:59;8.93;;;4.43;;
74898;SDS011;63458;48.210;16.338;2023-05-10T03:50:26;8.52;;;4.55;;
74898;SDS011;63458;48.210;16.338;2023-05-10T03:52:52;8.13;;;4.90;;
74898;SDS011;63458;48.210;16.338;2023-05-10T03:55:18;8.65;;;5.25;;
74898;SDS011;63458;48.210;16.338;2023-05-10T03:57:44;8.45;;;4.88;;
74898;SDS011;63458;48.210;16.338;2023-05-10T04:00:10;9.40;;;5.05;;
74898;SDS011;63458;48.210;16.338;2023-05-10T04:02:36;8.32;;;5.03;;
74898;SDS011;63458;48.210;16.338;2023-05-10T04:05:02;8.48;;;4.78;;
74898;SDS011;63458;48.210;16.338;2023-05-10T04:07:28;8.55;;;4.70;;
74898;SDS011;63458;48.210;16.338;2023-05-10T04:09:54;9.07;;;4.53;;
74898;SDS011;63458;48.210;16.338;2023-05-10T04:12:20;8.80;;;5.38;;
74898;SDS011;63458;48.210;16.338;2023-05-10T04:14:46;8.77;;;4.32;;
74898;SDS011;63458;48.210;16.338;2023-05-10T04:17:12;8.63;;;4.50;;
74898;SDS011;63458;48.210;16.338;2023-05-10T04:19:38;10.00;;;5.00;;
74898;SDS011;63458;48.210;16.338;2023-05-10T04:22:04;8.82;;;5.50;;
74898;SDS011;63458;48.210;16.338;2023-05-10T04:24:30;9.68;;;4.90;;
74898;SDS011;63458;48.210;16.338;2023-05-10T04:26:56;10.10;;;5.47;;
74898;SDS011;63458;48.210;16.338;2023-05-10T04:29:22;9.02;;;5.15;;
74898;SDS011;63458;48.210;16.338;2023-05-10T04:31:48;9.18;;;5.55;;
74898;SDS011;63458;48.210;16.338;2023-05-10T04:34:15;8.68;;;4.82;;
74898;SDS011;63458;48.210;16.338;2023-05-10T04:36:41;10.98;;;5.57;;
74898;SDS011;63458;48.210;16.338;2023-05-10T04:39:08;10.15;;;5.28;;
74898;SDS011;63458;48.210;16.338;2023-05-10T04:41:34;9.27;;;4.95;;
74898;SDS011;63458;48.210;16.338;2023-05-10T04:44:00;8.88;;;4.40;;
74898;SDS011;63458;48.210;16.338;2023-05-10T04:46:26;10.10;;;6.13;;
74898;SDS011;63458;48.210;16.338;2023-05-10T04:48:52;9.35;;;5.03;;
74898;SDS011;63458;48.210;16.338;2023-05-10T04:51:18;9.52;;;5.38;;
74898;SDS011;63458;48.210;16.338;2023-05-10T04:53:45;8.85;;;5.20;;
74898;SDS011;63458;48.210;16.338;2023-05-10T04:56:11;8.73;;;4.80;;
74898;SDS011;63458;48.210;16.338;2023-05-10T04:58:37;11.18;;;5.55;;
74898;SDS011;63458;48.210;16.338;2023-05-10T05:01:06;9.10;;;5.68;;
74898;SDS011;63458;48.210;16.338;2023-05-10T05:03:33;8.02;;;4.63;;
74898;SDS011;63458;48.210;16.338;2023-05-10T05:05:59;8.93;;;5.60;;
74898;SDS011;63458;48.210;16.338;2023-05-10T05:08:25;9.15;;;5.38;;
74898;SDS011;63458;48.210;16.338;2023-05-10T05:10:51;9.77;;;5.15;;
74898;SDS011;63458;48.210;16.338;2023-05-10T05:13:17;10.52;;;5.75;;
74898;SDS011;63458;48.210;16.338;2023-05-10T05:15:43;9.93;;;5.72;;
74898;SDS011;63458;48.210;16.338;2023-05-10T05:18:09;9.02;;;5.57;;
74898;SDS011;63458;48.210;16.338;2023-05-10T05:20:35;10.13;;;5.47;;
74898;SDS011;63458;48.210;16.338;2023-05-10T05:23:01;9.52;;;5.43;;
74898;SDS011;63458;48.210;16.338;2023-05-10T05:25:27;9.68;;;5.00;;
74898;SDS011;63458;48.210;16.338;2023-05-10T05:27:53;9.13;;;6.18;;
74898;SDS011;63458;48.210;16.338;2023-05-10T05:30:19;9.27;;;5.22;;
74898;SDS011;63458;48.210;16.338;2023-05-10T05:32:45;10.60;;;5.45;;
74898;SDS011;63458;48.210;16.338;2023-05-10T05:35:14;8.77;;;5.13;;
74898;SDS011;63458;48.210;16.338;2023-05-10T05:37:40;9.43;;;6.30;;
74898;SDS011;63458;48.210;16.338;2023-05-10T05:40:06;9.15;;;5.80;;
74898;SDS011;63458;48.210;16.338;2023-05-10T05:42:33;9.40;;;6.15;;
74898;SDS011;63458;48.210;16.338;2023-05-10T05:44:59;8.95;;;4.85;;
74898;SDS011;63458;48.210;16.338;2023-05-10T05:47:25;9.73;;;5.30;;
74898;SDS011;63458;48.210;16.338;2023-05-10T05:49:51;11.70;;;6.32;;
74898;SDS011;63458;48.210;16.338;2023-05-10T05:52:17;10.50;;;5.32;;
74898;SDS011;63458;48.210;16.338;2023-05-10T05:54:43;8.48;;;4.70;;
74898;SDS011;63458;48.210;16.338;2023-05-10T05:57:09;10.30;;;5.63;;
74898;SDS011;63458;48.210;16.338;2023-05-10T05:59:35;10.45;;;5.28;;
74898;SDS011;63458;48.210;16.338;2023-05-10T06:02:01;9.70;;;5.15;;
74898;SDS011;63458;48.210;16.338;2023-05-10T06:04:27;9.07;;;4.85;;
74898;SDS011;63458;48.210;16.338;2023-05-10T06:06:53;8.70;;;4.72;;
74898;SDS011;63458;48.210;16.338;2023-05-10T06:09:19;7.97;;;4.85;;
74898;SDS011;63458;48.210;16.338;2023-05-10T06:11:45;9.63;;;5.50;;
74898;SDS011;63458;48.210;16.338;2023-05-10T06:14:11;10.95;;;5.32;;
74898;SDS011;63458;48.210;16.338;2023-05-10T06:16:37;13.45;;;4.90;;
74898;SDS011;63458;48.210;16.338;2023-05-10T06:19:03;9.40;;;5.15;;
74898;SDS011;63458;48.210;16.338;2023-05-10T06:21:29;11.35;;;5.18;;
74898;SDS011;63458;48.210;16.338;2023-05-10T06:23:55;10.00;;;4.80;;
74898;SDS011;63458;48.210;16.338;2023-05-10T06:26:21;11.50;;;5.35;;
74898;SDS011;63458;48.210;16.338;2023-05-10T06:28:47;9.70;;;5.20;;
74898;SDS011;63458;48.210;16.338;2023-05-10T06:31:13;8.70;;;5.07;;
74898;SDS011;63458;48.210;16.338;2023-05-10T06:33:40;9.43;;;3.90;;
74898;SDS011;63458;48.210;16.338;2023-05-10T06:36:06;8.02;;;4.57;;
74898;SDS011;63458;48.210;16.338;2023-05-10T06:38:32;10.00;;;4.88;;
74898;SDS011;63458;48.210;16.338;2023-05-10T06:40:58;8.95;;;4.85;;
74898;SDS011;63458;48.210;16.338;2023-05-10T06:43:24;9.13;;;4.90;;
74898;SDS011;63458;48.210;16.338;2023-05-10T06:45:51;8.45;;;4.78;;
74898;SDS011;63458;48.210;16.338;2023-05-10T06:48:17;10.52;;;4.90;;
74898;SDS011;63458;48.210;16.338;2023-05-10T06:50:43;8.73;;;5.40;;
74898;SDS011;63458;48.210;16.338;2023-05-10T06:53:09;8.65;;;5.32;;
74898;SDS011;63458;48.210;16.338;2023-05-10T06:55:37;9.43;;;5.25;;
74898;SDS011;63458;48.210;16.338;2023-05-10T06:58:03;16.10;;;9.82;;
74898;SDS011;63458;48.210;16.338;2023-05-10T07:00:29;8.48;;;5.05;;
74898;SDS011;63458;48.210;16.338;2023-05-10T07:02:55;12.30;;;5.00;;
74898;SDS011;63458;48.210;16.338;2023-05-10T07:05:21;8.05;;;4.78;;
74898;SDS011;63458;48.210;16.338;2023-05-10T07:07:47;9.15;;;4.78;;
74898;SDS011;63458;48.210;16.338;2023-05-10T07:10:13;9.13;;;4.88;;
74898;SDS011;63458;48.210;16.338;2023-05-10T07:12:39;10.75;;;5.07;;
74898;SDS011;63458;48.210;16.338;2023-05-10T07:15:05;9.05;;;4.40;;
74898;SDS011;63458;48.210;16.338;2023-05-10T07:17:31;9.27;;;4.78;;
74898;SDS011;63458;48.210;16.338;2023-05-10T07:19:58;9.27;;;5.03;;
74898;SDS011;63458;48.210;16.338;2023-05-10T07:22:25;8.95;;;4.63;;
74898;SDS011;63458;48.210;16.338;2023-05-10T07:24:51;9.70;;;5.32;;
74898;SDS011;63458;48.210;16.338;2023-05-10T07:27:17;9.80;;;4.50;;
74898;SDS011;63458;48.210;16.338;2023-05-10T07:29:43;9.90;;;5.43;;
74898;SDS011;63458;48.210;16.338;2023-05-10T07:32:09;9.30;;;4.72;;
74898;SDS011;63458;48.210;16.338;2023-05-10T07:34:35;9.30;;;5.07;;
74898;SDS011;63458;48.210;16.338;2023-05-10T07:37:01;10.70;;;5.40;;
74898;SDS011;63458;48.210;16.338;2023-05-10T07:39:27;9.57;;;5.72;;
74898;SDS011;63458;48.210;16.338;2023-05-10T07:41:56;11.07;;;5.38;;
74898;SDS011;63458;48.210;16.338;2023-05-10T07:44:22;10.20;;;4.95;;
74898;SDS011;63458;48.210;16.338;2023-05-10T07:46:48;7.80;;;4.53;;
74898;SDS011;63458;48.210;16.338;2023-05-10T07:49:14;8.82;;;4.95;;
74898;SDS011;63458;48.210;16.338;2023-05-10T07:51:40;9.30;;;5.18;;
74898;SDS011;63458;48.210;16.338;2023-05-10T07:54:07;8.50;;;5.53;;
74898;SDS011;63458;48.210;16.338;2023-05-10T07:56:33;9.55;;;4.97;;
74898;SDS011;63458;48.210;16.338;2023-05-10T07:59:00;9.90;;;4.75;;
74898;SDS011;63458;48.210;16.338;2023-05-10T08:01:26;9.55;;;4.80;;
74898;SDS011;63458;48.210;16.338;2023-05-10T08:03:55;8.88;;;6.38;;
74898;SDS011;63458;48.210;16.338;2023-05-10T08:06:21;9.48;;;4.90;;
74898;SDS011;63458;48.210;16.338;2023-05-10T08:08:47;10.75;;;5.40;;
74898;SDS011;63458;48.210;16.338;2023-05-10T08:11:18;8.60;;;5.45;;
74898;SDS011;63458;48.210;16.338;2023-05-10T08:13:45;9.38;;;5.72;;
74898;SDS011;63458;48.210;16.338;2023-05-10T08:16:11;9.88;;;5.28;;
74898;SDS011;63458;48.210;16.338;2023-05-10T08:18:37;8.85;;;5.28;;
74898;SDS011;63458;48.210;16.338;2023-05-10T08:21:03;10.75;;;6.32;;
74898;SDS011;63458;48.210;16.338;2023-05-10T08:23:29;8.88;;;5.00;;
74898;SDS011;63458;48.210;16.338;2023-05-10T08:25:55;8.93;;;4.50;;
74898;SDS011;63458;48.210;16.338;2023-05-10T08:28:22;9.45;;;4.57;;
74898;SDS011;63458;48.210;16.338;2023-05-10T08:30:49;12.18;;;6.15;;
74898;SDS011;63458;48.210;16.338;2023-05-10T08:33:15;8.45;;;5.20;;
74898;SDS011;63458;48.210;16.338;2023-05-10T08:35:41;9.05;;;4.80;;
74898;SDS011;63458;48.210;16.338;2023-05-10T08:38:07;9.45;;;5.10;;
74898;SDS011;63458;48.210;16.338;2023-05-10T08:40:33;9.48;;;5.05;;
74898;SDS011;63458;48.210;16.338;2023-05-10T08:43:05;7.88;;;4.85;;
74898;SDS011;63458;48.210;16.338;2023-05-10T08:45:32;7.72;;;4.50;;
74898;SDS011;63458;48.210;16.338;2023-05-10T08:48:01;10.38;;;5.43;;
74898;SDS011;63458;48.210;16.338;2023-05-10T08:50:28;9.30;;;4.75;;
74898;SDS011;63458;48.210;16.338;2023-05-10T08:55:21;9.40;;;5.85;;
74898;SDS011;63458;48.210;16.338;2023-05-10T08:57:48;8.82;;;4.80;;
74898;SDS011;63458;48.210;16.338;2023-05-10T09:00:15;8.63;;;4.82;;
74898;SDS011;63458;48.210;16.338;2023-05-10T09:02:41;7.95;;;4.45;;
74898;SDS011;63458;48.210;16.338;2023-05-10T09:05:10;7.82;;;4.30;;
74898;SDS011;63458;48.210;16.338;2023-05-10T09:07:36;8.43;;;4.63;;
74898;SDS011;63458;48.210;16.338;2023-05-10T09:10:02;8.93;;;3.92;;
74898;SDS011;63458;48.210;16.338;2023-05-10T09:12:30;7.18;;;4.00;;
74898;SDS011;63458;48.210;16.338;2023-05-10T09:14:56;7.50;;;4.15;;
74898;SDS011;63458;48.210;16.338;2023-05-10T09:19:49;6.95;;;3.72;;
74898;SDS011;63458;48.210;16.338;2023-05-10T09:22:15;6.20;;;3.33;;
74898;SDS011;63458;48.210;16.338;2023-05-10T09:24:42;8.15;;;3.55;;
74898;SDS011;63458;48.210;16.338;2023-05-10T09:27:10;7.97;;;3.90;;
74898;SDS011;63458;48.210;16.338;2023-05-10T09:29:39;6.43;;;3.20;;
74898;SDS011;63458;48.210;16.338;2023-05-10T09:32:05;6.53;;;3.00;;
74898;SDS011;63458;48.210;16.338;2023-05-10T09:34:32;5.80;;;2.70;;
74898;SDS011;63458;48.210;16.338;2023-05-10T09:37:00;6.38;;;3.22;;
74898;SDS011;63458;48.210;16.338;2023-05-10T09:39:30;5.95;;;3.05;;
74898;SDS011;63458;48.210;16.338;2023-05-10T09:41:57;8.73;;;2.88;;
74898;SDS011;63458;48.210;16.338;2023-05-10T09:44:23;6.70;;;2.60;;
74898;SDS011;63458;48.210;16.338;2023-05-10T09:46:51;7.07;;;2.70;;
74898;SDS011;63458;48.210;16.338;2023-05-10T09:49:18;4.28;;;2.30;;
74898;SDS011;63458;48.210;16.338;2023-05-10T09:51:44;6.25;;;2.35;;
74898;SDS011;63458;48.210;16.338;2023-05-10T09:54:17;4.82;;;2.00;;
74898;SDS011;63458;48.210;16.338;2023-05-10T09:56:43;3.97;;;2.05;;
74898;SDS011;63458;48.210;16.338;2023-05-10T09:59:10;5.95;;;2.40;;
74898;SDS011;63458;48.210;16.338;2023-05-10T10:01:36;5.20;;;2.30;;
74898;SDS011;63458;48.210;16.338;2023-05-10T10:04:06;4.88;;;2.20;;
74898;SDS011;63458;48.210;16.338;2023-05-10T10:06:36;4.80;;;2.13;;
74898;SDS011;63458;48.210;16.338;2023-05-10T10:09:03;4.70;;;2.42;;
74898;SDS011;63458;48.210;16.338;2023-05-10T10:11:29;4.85;;;2.30;;
74898;SDS011;63458;48.210;16.338;2023-05-10T10:13:55;4.78;;;2.17;;
74898;SDS011;63458;48.210;16.338;2023-05-10T10:16:21;4.85;;;2.20;;
74898;SDS011;63458;48.210;16.338;2023-05-10T10:18:47;5.10;;;2.33;;
74898;SDS011;63458;48.210;16.338;2023-05-10T10:21:14;5.18;;;2.35;;
74898;SDS011;63458;48.210;16.338;2023-05-10T10:23:40;3.40;;;1.80;;
74898;SDS011;63458;48.210;16.338;2023-05-10T10:26:06;5.82;;;2.30;;
74898;SDS011;63458;48.210;16.338;2023-05-10T10:31:00;5.07;;;2.20;;
74898;SDS011;63458;48.210;16.338;2023-05-10T10:36:14;5.20;;;2.17;;
74898;SDS011;63458;48.210;16.338;2023-05-10T10:49:26;5.30;;;2.35;;
74898;SDS011;63458;48.210;16.338;2023-05-10T10:54:36;4.63;;;2.38;;
74898;SDS011;63458;48.210;16.338;2023-05-10T10:57:12;6.38;;;2.80;;
74898;SDS011;63458;48.210;16.338;2023-05-10T10:59:42;7.40;;;2.55;;
74898;SDS011;63458;48.210;16.338;2023-05-10T11:02:08;5.35;;;2.30;;
74898;SDS011;63458;48.210;16.338;2023-05-10T11:04:41;5.00;;;2.28;;
74898;SDS011;63458;48.210;16.338;2023-05-10T11:07:18;5.85;;;2.83;;
74898;SDS011;63458;48.210;16.338;2023-05-10T11:09:45;5.78;;;2.70;;
74898;SDS011;63458;48.210;16.338;2023-05-10T11:12:12;5.35;;;2.55;;
74898;SDS011;63458;48.210;16.338;2023-05-10T11:14:39;6.50;;;2.50;;
74898;SDS011;63458;48.210;16.338;2023-05-10T11:17:24;6.53;;;2.72;;
74898;SDS011;63458;48.210;16.338;2023-05-10T11:20:09;4.60;;;2.55;;
74898;SDS011;63458;48.210;16.338;2023-05-10T11:22:54;6.30;;;2.80;;
74898;SDS011;63458;48.210;16.338;2023-05-10T11:25:25;5.45;;;2.33;;
74898;SDS011;63458;48.210;16.338;2023-05-10T11:27:52;5.30;;;2.30;;
74898;SDS011;63458;48.210;16.338;2023-05-10T11:30:18;8.68;;;3.25;;
74898;SDS011;63458;48.210;16.338;2023-05-10T11:32:44;5.95;;;2.60;;
74898;SDS011;63458;48.210;16.338;2023-05-10T11:35:10;5.78;;;2.53;;
74898;SDS011;63458;48.210;16.338;2023-05-10T11:37:38;6.72;;;2.30;;
74898;SDS011;63458;48.210;16.338;2023-05-10T11:40:10;5.93;;;2.25;;
74898;SDS011;63458;48.210;16.338;2023-05-10T11:42:39;6.07;;;2.40;;
74898;SDS011;63458;48.210;16.338;2023-05-10T11:45:05;4.93;;;2.47;;
74898;SDS011;63458;48.210;16.338;2023-05-10T11:47:31;5.82;;;2.50;;
74898;SDS011;63458;48.210;16.338;2023-05-10T11:49:57;4.30;;;2.33;;
74898;SDS011;63458;48.210;16.338;2023-05-10T11:52:23;4.97;;;2.45;;
74898;SDS011;63458;48.210;16.338;2023-05-10T11:54:53;3.20;;;1.88;;
74898;SDS011;63458;48.210;16.338;2023-05-10T11:57:19;4.28;;;2.03;;
74898;SDS011;63458;48.210;16.338;2023-05-10T11:59:46;4.35;;;2.40;;
74898;SDS011;63458;48.210;16.338;2023-05-10T12:02:13;3.90;;;2.13;;
74898;SDS011;63458;48.210;16.338;2023-05-10T12:04:39;3.83;;;2.00;;
74898;SDS011;63458;48.210;16.338;2023-05-10T12:07:06;4.57;;;2.95;;
74898;SDS011;63458;48.210;16.338;2023-05-10T12:09:32;4.22;;;2.30;;
74898;SDS011;63458;48.210;16.338;2023-05-10T12:11:58;5.18;;;2.55;;
74898;SDS011;63458;48.210;16.338;2023-05-10T12:14:24;6.90;;;2.45;;
74898;SDS011;63458;48.210;16.338;2023-05-10T12:16:50;4.72;;;2.30;;
74898;SDS011;63458;48.210;16.338;2023-05-10T12:19:20;4.38;;;2.13;;
74898;SDS011;63458;48.210;16.338;2023-05-10T12:21:46;6.28;;;2.45;;
74898;SDS011;63458;48.210;16.338;2023-05-10T12:24:12;6.60;;;2.13;;
74898;SDS011;63458;48.210;16.338;2023-05-10T12:26:41;4.75;;;2.22;;
74898;SDS011;63458;48.210;16.338;2023-05-10T12:29:19;5.85;;;2.63;;
74898;SDS011;63458;48.210;16.338;2023-05-10T12:31:49;4.97;;;2.17;;
74898;SDS011;63458;48.210;16.338;2023-05-10T12:36:51;4.88;;;2.25;;
74898;SDS011;63458;48.210;16.338;2023-05-10T12:39:18;4.43;;;2.38;;
74898;SDS011;63458;48.210;16.338;2023-05-10T12:41:44;4.97;;;2.30;;
74898;SDS011;63458;48.210;16.338;2023-05-10T12:44:10;5.53;;;2.42;;
74898;SDS011;63458;48.210;16.338;2023-05-10T12:46:36;6.22;;;2.17;;
74898;SDS011;63458;48.210;16.338;2023-05-10T12:49:02;4.15;;;2.28;;
74898;SDS011;63458;48.210;16.338;2023-05-10T12:51:28;4.18;;;2.03;;
74898;SDS011;63458;48.210;16.338;2023-05-10T12:53:54;5.93;;;2.03;;
74898;SDS011;63458;48.210;16.338;2023-05-10T12:56:20;6.57;;;2.33;;
74898;SDS011;63458;48.210;16.338;2023-05-10T12:58:46;4.80;;;2.20;;
74898;SDS011;63458;48.210;16.338;2023-05-10T13:01:13;4.75;;;2.47;;
74898;SDS011;63458;48.210;16.338;2023-05-10T13:03:39;6.95;;;2.90;;
74898;SDS011;63458;48.210;16.338;2023-05-10T13:06:05;5.90;;;2.75;;
74898;SDS011;63458;48.210;16.338;2023-05-10T13:08:31;5.55;;;2.80;;
74898;SDS011;63458;48.210;16.338;2023-05-10T13:11:01;5.93;;;2.72;;
74898;SDS011;63458;48.210;16.338;2023-05-10T13:13:28;5.80;;;2.80;;
74898;SDS011;63458;48.210;16.338;2023-05-10T13:15:54;7.03;;;3.00;;
74898;SDS011;63458;48.210;16.338;2023-05-10T13:18:20;5.85;;;2.97;;
74898;SDS011;63458;48.210;16.338;2023-05-10T13:20:46;6.45;;;2.85;;
74898;SDS011;63458;48.210;16.338;2023-05-10T13:23:12;5.25;;;2.70;;
74898;SDS011;63458;48.210;16.338;2023-05-10T13:25:38;5.50;;;2.80;;
74898;SDS011;63458;48.210;16.338;2023-05-10T13:28:04;6.85;;;3.60;;
74898;SDS011;63458;48.210;16.338;2023-05-10T13:30:30;6.22;;;3.03;;
74898;SDS011;63458;48.210;16.338;2023-05-10T13:32:56;6.35;;;3.38;;
74898;SDS011;63458;48.210;16.338;2023-05-10T13:35:22;6.47;;;3.20;;
74898;SDS011;63458;48.210;16.338;2023-05-10T13:37:48;7.07;;;3.22;;
74898;SDS011;63458;48.210;16.338;2023-05-10T13:40:14;5.85;;;3.20;;
74898;SDS011;63458;48.210;16.338;2023-05-10T13:42:40;5.22;;;3.35;;
74898;SDS011;63458;48.210;16.338;2023-05-10T13:45:07;6.15;;;3.40;;
74898;SDS011;63458;48.210;16.338;2023-05-10T13:47:33;7.78;;;3.28;;
74898;SDS011;63458;48.210;16.338;2023-05-10T13:49:59;5.05;;;3.30;;
74898;SDS011;63458;48.210;16.338;2023-05-10T13:52:26;7.00;;;3.63;;
74898;SDS011;63458;48.210;16.338;2023-05-10T13:54:52;6.68;;;3.22;;
74898;SDS011;63458;48.210;16.338;2023-05-10T13:57:20;7.07;;;3.20;;
74898;SDS011;63458;48.210;16.338;2023-05-10T13:59:46;5.22;;;3.13;;
74898;SDS011;63458;48.210;16.338;2023-05-10T14:02:12;6.03;;;3.05;;
74898;SDS011;63458;48.210;16.338;2023-05-10T14:04:38;5.40;;;3.00;;
74898;SDS011;63458;48.210;16.338;2023-05-10T14:07:05;7.95;;;3.90;;
74898;SDS011;63458;48.210;16.338;2023-05-10T14:09:31;6.10;;;3.30;;
74898;SDS011;63458;48.210;16.338;2023-05-10T14:11:57;7.10;;;3.22;;
74898;SDS011;63458;48.210;16.338;2023-05-10T14:14:23;5.50;;;3.03;;
74898;SDS011;63458;48.210;16.338;2023-05-10T14:16:49;6.25;;;3.45;;
74898;SDS011;63458;48.210;16.338;2023-05-10T14:19:16;5.93;;;3.10;;
74898;SDS011;63458;48.210;16.338;2023-05-10T14:21:42;5.93;;;3.08;;
74898;SDS011;63458;48.210;16.338;2023-05-10T14:24:08;5.78;;;3.05;;
74898;SDS011;63458;48.210;16.338;2023-05-10T14:26:35;5.60;;;3.15;;
74898;SDS011;63458;48.210;16.338;2023-05-10T14:29:01;4.60;;;2.80;;
74898;SDS011;63458;48.210;16.338;2023-05-10T14:31:27;4.43;;;2.83;;
74898;SDS011;63458;48.210;16.338;2023-05-10T14:33:55;4.75;;;2.75;;
74898;SDS011;63458;48.210;16.338;2023-05-10T14:36:22;7.38;;;2.85;;
74898;SDS011;63458;48.210;16.338;2023-05-10T14:38:48;5.15;;;3.05;;
74898;SDS011;63458;48.210;16.338;2023-05-10T14:41:14;6.28;;;3.10;;
74898;SDS011;63458;48.210;16.338;2023-05-10T14:43:42;4.78;;;2.70;;
74898;SDS011;63458;48.210;16.338;2023-05-10T14:46:08;7.28;;;2.97;;
74898;SDS011;63458;48.210;16.338;2023-05-10T14:48:34;4.68;;;2.40;;
74898;SDS011;63458;48.210;16.338;2023-05-10T14:51:01;7.95;;;3.17;;
74898;SDS011;63458;48.210;16.338;2023-05-10T14:53:27;4.00;;;2.60;;
74898;SDS011;63458;48.210;16.338;2023-05-10T14:55:53;5.82;;;2.97;;
74898;SDS011;63458;48.210;16.338;2023-05-10T14:58:19;4.82;;;2.80;;
74898;SDS011;63458;48.210;16.338;2023-05-10T15:00:45;5.88;;;3.10;;
74898;SDS011;63458;48.210;16.338;2023-05-10T15:03:11;5.57;;;2.67;;
74898;SDS011;63458;48.210;16.338;2023-05-10T15:05:37;5.22;;;2.75;;
74898;SDS011;63458;48.210;16.338;2023-05-10T15:08:04;6.57;;;3.00;;
74898;SDS011;63458;48.210;16.338;2023-05-10T15:10:30;4.07;;;2.40;;
74898;SDS011;63458;48.210;16.338;2023-05-10T15:12:57;6.13;;;2.85;;
74898;SDS011;63458;48.210;16.338;2023-05-10T15:15:23;6.38;;;2.67;;
74898;SDS011;63458;48.210;16.338;2023-05-10T15:17:49;5.35;;;3.05;;